Time;durP1;ratioP1;P1;durP2;ratioP2;P2;SDS_P1;SDS_P2;PMS_P1;PMS_P2;Temp;Humidity;BMP_temperature;BMP_pressure;BME280_temperature;BME280_humidity;BME280_pressure;Samples;Min_cycle;Max_cycle;Signal;HPM_P1;HPM_P2
2023/07/09 00:01:12;;;;;;;;;;;24.10;95.30;;;;;;5017740;28;20456;-83
2023/07/09 00:03:37;;;;;;;;;;;24.10;95.30;;;;;;5020148;28;19917;-85
2023/07/09 00:06:03;;;;;;;;;;;24.10;95.20;;;;;;5020367;28;19917;-83
2023/07/09 00:08:30;;;;;;;;;;;24.10;95.10;;;;;;5020566;28;19924;-86
2023/07/09 00:10:56;;;;;;;;;;;24.20;95.10;;;;;;5024552;28;19925;-82
2023/07/09 00:13:22;;;;;;;;;;;24.10;95.20;;;;;;5022347;28;20896;-83
2023/07/09 00:15:48;;;;;;;;;;;24.10;95.30;;;;;;5024192;28;19917;-86
2023/07/09 00:18:14;;;;;;;;;;;24.10;95.30;;;;;;5026835;28;19927;-85
2023/07/09 00:20:43;;;;;;;;;;;24.10;95.30;;;;;;5006902;28;19917;-80
2023/07/09 00:23:09;;;;;;;;;;;24.00;95.50;;;;;;5019955;28;20625;-85
2023/07/09 00:25:35;;;;;;;;;;;23.90;95.70;;;;;;5027826;28;20376;-83
2023/07/09 00:28:02;;;;;;;;;;;23.80;96.10;;;;;;5029177;28;19944;-87
2023/07/09 00:30:27;;;;;;;;;;;23.80;96.30;;;;;;5005523;28;20375;-83
2023/07/09 00:32:54;;;;;;;;;;;23.70;96.50;;;;;;5031452;28;19962;-83
2023/07/09 00:35:20;;;;;;;;;;;23.60;96.90;;;;;;5031514;28;20502;-83
2023/07/09 00:37:47;;;;;;;;;;;23.60;96.80;;;;;;5025114;28;20013;-80
2023/07/09 00:40:18;;;;;;;;;;;23.70;96.80;;;;;;5022457;28;19925;-83
2023/07/09 00:42:48;;;;;;;;;;;23.70;96.90;;;;;;5018702;28;19913;-83
2023/07/09 00:45:18;;;;;;;;;;;23.70;96.90;;;;;;5021603;28;20009;-82
2023/07/09 00:47:47;;;;;;;;;;;23.60;97.00;;;;;;5016449;28;19928;-83
2023/07/09 00:50:19;;;;;;;;;;;23.60;96.90;;;;;;5004979;28;19925;-86
2023/07/09 00:53:07;;;;;;;;;;;23.60;96.80;;;;;;5021548;28;19917;-83
2023/07/09 00:55:37;;;;;;;;;;;23.50;97.10;;;;;;5014457;28;19926;-82
2023/07/09 00:58:05;;;;;;;;;;;23.40;97.40;;;;;;5017685;28;19917;-86
2023/07/09 01:00:46;;;;;;;;;;;23.40;97.50;;;;;;5007667;28;19932;-83
2023/07/09 01:03:23;;;;;;;;;;;23.40;97.30;;;;;;5007174;28;19917;-83
2023/07/09 01:05:55;;;;;;;;;;;23.40;97.60;;;;;;5021330;28;19924;-82
2023/07/09 01:08:21;;;;;;;;;;;23.30;97.60;;;;;;5027742;28;20033;-83
2023/07/09 01:10:46;;;;;;;;;;;23.30;97.60;;;;;;5019592;28;19921;-83
2023/07/09 01:13:12;;;;;;;;;;;23.40;97.40;;;;;;5006475;28;19913;-83
2023/07/09 01:15:38;;;;;;;;;;;23.30;97.40;;;;;;5028713;28;19967;-82
2023/07/09 01:18:04;;;;;;;;;;;23.30;97.50;;;;;;5027867;28;19918;-81
2023/07/09 01:20:30;;;;;;;;;;;23.30;97.10;;;;;;5022111;28;19917;-83
2023/07/09 01:22:56;;;;;;;;;;;23.20;97.20;;;;;;5022323;28;20395;-82
2023/07/09 01:25:25;;;;;;;;;;;23.20;97.20;;;;;;5029836;28;19956;-81
2023/07/09 01:27:51;;;;;;;;;;;23.20;97.50;;;;;;5021167;28;19983;-83
2023/07/09 01:30:22;;;;;;;;;;;23.10;97.50;;;;;;5023166;28;20761;-81
2023/07/09 01:32:49;;;;;;;;;;;23.20;97.40;;;;;;5021302;28;19920;-86
2023/07/09 01:35:17;;;;;;;;;;;23.20;97.20;;;;;;5022252;28;19987;-85
2023/07/09 01:37:43;;;;;;;;;;;23.10;96.80;;;;;;5004518;28;20563;-86
2023/07/09 01:40:09;;;;;;;;;;;23.10;95.50;;;;;;5010311;28;19997;-84
2023/07/09 01:42:37;;;;;;;;;;;23.20;95.50;;;;;;5004362;28;19913;-84
2023/07/09 01:45:04;;;;;;;;;;;23.20;95.50;;;;;;5023595;28;19917;-86
2023/07/09 01:47:29;;;;;;;;;;;23.10;95.00;;;;;;5005371;28;19917;-86
2023/07/09 01:49:59;;;;;;;;;;;23.10;93.80;;;;;;5019898;28;19947;-86
2023/07/09 01:52:27;;;;;;;;;;;23.20;93.00;;;;;;5022244;28;20747;-87
2023/07/09 01:54:53;;;;;;;;;;;23.20;92.70;;;;;;5020785;28;20001;-89
2023/07/09 01:57:22;;;;;;;;;;;23.20;92.20;;;;;;5023007;28;20658;-88
2023/07/09 01:59:52;;;;;;;;;;;23.20;92.30;;;;;;5001426;28;19976;-89
2023/07/09 02:02:19;;;;;;;;;;;23.20;91.80;;;;;;5003823;28;19913;-88
2023/07/09 02:04:48;;;;;;;;;;;23.20;91.40;;;;;;5018751;28;19919;-88
2023/07/09 02:07:14;;;;;;;;;;;23.20;91.70;;;;;;5017175;28;19925;-88
2023/07/09 02:09:40;;;;;;;;;;;23.10;92.00;;;;;;5021164;28;20315;-88
2023/07/09 02:12:05;;;;;;;;;;;23.00;92.40;;;;;;5020304;28;19913;-88
2023/07/09 02:14:31;;;;;;;;;;;22.90;92.90;;;;;;5002683;28;19940;-87
2023/07/09 02:16:57;;;;;;;;;;;22.80;94.20;;;;;;5021820;28;19967;-87
2023/07/09 02:19:22;;;;;;;;;;;22.70;94.70;;;;;;5004400;28;19975;-87
2023/07/09 02:21:48;;;;;;;;;;;22.60;95.40;;;;;;5008809;28;20493;-88
2023/07/09 02:24:13;;;;;;;;;;;22.60;95.20;;;;;;5007451;28;19917;-88
2023/07/09 02:26:39;;;;;;;;;;;22.50;95.70;;;;;;5024915;28;19913;-86
2023/07/09 02:29:04;;;;;;;;;;;22.50;95.80;;;;;;5006477;28;19941;-88
2023/07/09 02:31:30;;;;;;;;;;;22.50;95.40;;;;;;4999623;28;19936;-87
2023/07/09 02:33:56;;;;;;;;;;;22.40;95.50;;;;;;5017986;28;19913;-88
2023/07/09 02:36:24;;;;;;;;;;;22.50;95.10;;;;;;5023998;28;19913;-89
2023/07/09 02:38:49;;;;;;;;;;;22.50;94.20;;;;;;5005330;28;19913;-89
2023/07/09 02:41:15;;;;;;;;;;;22.40;94.80;;;;;;5021158;28;20613;-87
2023/07/09 02:43:41;;;;;;;;;;;22.40;94.00;;;;;;5020849;28;20362;-88
2023/07/09 02:46:06;;;;;;;;;;;22.40;93.40;;;;;;5023879;28;19944;-88
2023/07/09 02:48:32;;;;;;;;;;;22.40;93.30;;;;;;5011630;28;20336;-88
2023/07/09 02:50:57;;;;;;;;;;;22.40;92.70;;;;;;5007292;28;19925;-88
2023/07/09 02:53:23;;;;;;;;;;;22.40;92.70;;;;;;5006615;28;19919;-88
2023/07/09 02:55:48;;;;;;;;;;;22.30;92.80;;;;;;5024370;28;19914;-88
2023/07/09 02:58:14;;;;;;;;;;;22.30;92.80;;;;;;5003957;28;19925;-87
2023/07/09 03:00:39;;;;;;;;;;;22.20;92.90;;;;;;5004966;28;19929;-87
2023/07/09 03:03:05;;;;;;;;;;;22.20;93.10;;;;;;5005395;28;19913;-87
2023/07/09 03:05:30;;;;;;;;;;;22.20;93.20;;;;;;5005299;28;19920;-87
2023/07/09 03:07:56;;;;;;;;;;;22.20;93.30;;;;;;5005108;28;19917;-87
2023/07/09 03:10:22;;;;;;;;;;;22.10;93.60;;;;;;5023181;28;19960;-82
2023/07/09 03:12:47;;;;;;;;;;;22.10;93.90;;;;;;5004740;28;19917;-84
2023/07/09 03:15:13;;;;;;;;;;;22.00;94.20;;;;;;5006077;28;19917;-82
2023/07/09 03:17:39;;;;;;;;;;;22.00;94.40;;;;;;5019125;28;19917;-84
2023/07/09 03:20:05;;;;;;;;;;;21.90;94.50;;;;;;5006340;28;20347;-83
2023/07/09 03:22:31;;;;;;;;;;;22.00;94.40;;;;;;5006400;28;19971;-84
2023/07/09 03:24:56;;;;;;;;;;;22.00;94.00;;;;;;5006846;28;19917;-85
2023/07/09 03:27:22;;;;;;;;;;;22.20;91.40;;;;;;5017785;28;20697;-83
2023/07/09 03:29:47;;;;;;;;;;;22.30;90.00;;;;;;5007068;28;19975;-86
2023/07/09 03:32:13;;;;;;;;;;;22.30;89.30;;;;;;5006857;28;19917;-83
2023/07/09 03:34:38;;;;;;;;;;;22.20;90.20;;;;;;5005825;28;19920;-85
2023/07/09 03:37:04;;;;;;;;;;;22.00;90.90;;;;;;5024238;28;19920;-84
2023/07/09 03:39:30;;;;;;;;;;;22.00;90.90;;;;;;5023247;28;19921;-82
2023/07/09 03:41:55;;;;;;;;;;;21.90;91.20;;;;;;5023003;28;20327;-83
2023/07/09 03:44:21;;;;;;;;;;;21.90;91.40;;;;;;5005208;28;19924;-83
2023/07/09 03:46:46;;;;;;;;;;;21.90;91.70;;;;;;5023554;28;19921;-83
2023/07/09 03:49:12;;;;;;;;;;;21.90;91.80;;;;;;5023747;28;20387;-83
2023/07/09 03:51:37;;;;;;;;;;;21.80;92.00;;;;;;5024355;28;20283;-83
2023/07/09 03:54:03;;;;;;;;;;;21.80;92.00;;;;;;5022928;28;20816;-83
2023/07/09 03:56:29;;;;;;;;;;;21.70;92.10;;;;;;5022736;28;20674;-83
2023/07/09 03:58:54;;;;;;;;;;;21.60;92.60;;;;;;5021116;28;19928;-83
2023/07/09 04:01:20;;;;;;;;;;;21.60;92.70;;;;;;5001828;28;19921;-84
2023/07/09 04:03:45;;;;;;;;;;;21.50;92.90;;;;;;5004596;28;20651;-83
2023/07/09 04:06:11;;;;;;;;;;;21.50;93.00;;;;;;5023205;28;20007;-83
2023/07/09 04:08:36;;;;;;;;;;;21.50;93.00;;;;;;5005339;28;20470;-83
2023/07/09 04:11:02;;;;;;;;;;;21.50;92.70;;;;;;5022969;28;19963;-84
2023/07/09 04:13:28;;;;;;;;;;;21.50;92.10;;;;;;5023307;28;19920;-84
2023/07/09 04:15:54;;;;;;;;;;;21.50;91.60;;;;;;5023233;28;19917;-83
2023/07/09 04:18:20;;;;;;;;;;;21.60;90.60;;;;;;5021984;28;20432;-83
2023/07/09 04:20:49;;;;;;;;;;;21.60;90.10;;;;;;5023116;28;19924;-83
2023/07/09 04:23:15;;;;;;;;;;;21.60;89.20;;;;;;5022186;28;19913;-83
2023/07/09 04:25:40;;;;;;;;;;;21.60;88.70;;;;;;5022530;28;19920;-82
2023/07/09 04:28:06;;;;;;;;;;;21.80;85.70;;;;;;5022684;28;19913;-83
2023/07/09 04:30:31;;;;;;;;;;;21.80;84.00;;;;;;5022553;28;19959;-83
2023/07/09 04:32:57;;;;;;;;;;;22.00;82.30;;;;;;5022740;28;19913;-82
2023/07/09 04:35:23;;;;;;;;;;;22.10;82.00;;;;;;5004065;28;19920;-82
2023/07/09 04:37:49;;;;;;;;;;;22.30;81.30;;;;;;5021607;28;19968;-85
2023/07/09 04:40:15;;;;;;;;;;;22.70;79.30;;;;;;5003085;28;19925;-86
2023/07/09 04:42:41;;;;;;;;;;;23.00;77.70;;;;;;5021881;28;19948;-82
2023/07/09 04:45:07;;;;;;;;;;;23.20;75.90;;;;;;5022928;28;19917;-83
2023/07/09 04:47:33;;;;;;;;;;;23.40;74.00;;;;;;5021066;28;19972;-83
2023/07/09 04:49:58;;;;;;;;;;;23.50;72.80;;;;;;5020813;28;20708;-83
2023/07/09 04:52:24;;;;;;;;;;;23.70;71.70;;;;;;5023147;28;20517;-84
2023/07/09 04:54:50;;;;;;;;;;;24.10;70.20;;;;;;5019601;28;19920;-84
2023/07/09 04:57:16;;;;;;;;;;;24.40;67.00;;;;;;5004157;28;19917;-85
2023/07/09 04:59:41;;;;;;;;;;;24.70;66.50;;;;;;5003737;28;19917;-82
2023/07/09 05:02:07;;;;;;;;;;;24.90;66.20;;;;;;5004335;28;19971;-81
2023/07/09 05:04:33;;;;;;;;;;;25.20;64.00;;;;;;5020892;28;19939;-82
2023/07/09 05:06:59;;;;;;;;;;;25.70;64.00;;;;;;5023734;28;19924;-83
2023/07/09 05:09:24;;;;;;;;;;;26.20;61.70;;;;;;5021038;28;19918;-84
2023/07/09 05:11:51;;;;;;;;;;;26.60;59.60;;;;;;5004521;28;19920;-82
2023/07/09 05:14:16;;;;;;;;;;;27.00;59.40;;;;;;5022441;28;20469;-81
2023/07/09 05:16:43;;;;;;;;;;;27.40;60.50;;;;;;5020625;28;19913;-81
2023/07/09 05:19:08;;;;;;;;;;;27.70;58.70;;;;;;5022143;28;19917;-82
2023/07/09 05:21:34;;;;;;;;;;;28.30;57.70;;;;;;5021208;28;19925;-82
2023/07/09 05:24:00;;;;;;;;;;;28.30;57.30;;;;;;5022453;28;19913;-82
2023/07/09 05:26:25;;;;;;;;;;;28.50;54.40;;;;;;5022666;28;19920;-82
2023/07/09 05:28:51;;;;;;;;;;;28.70;53.70;;;;;;5003942;28;19920;-83
2023/07/09 05:31:16;;;;;;;;;;;28.60;52.30;;;;;;5021553;28;19913;-81
2023/07/09 05:33:42;;;;;;;;;;;29.20;52.60;;;;;;5020955;28;19920;-83
2023/07/09 05:36:08;;;;;;;;;;;29.80;52.40;;;;;;5021827;28;20420;-84
2023/07/09 05:38:34;;;;;;;;;;;29.90;50.70;;;;;;5021657;28;19917;-82
2023/07/09 05:41:03;;;;;;;;;;;30.10;51.40;;;;;;5020170;28;19917;-83
2023/07/09 05:43:29;;;;;;;;;;;30.40;52.60;;;;;;5003317;28;19993;-83
2023/07/09 05:45:55;;;;;;;;;;;30.50;50.60;;;;;;5003476;28;19917;-83
2023/07/09 05:48:20;;;;;;;;;;;30.70;50.60;;;;;;5020742;28;20720;-84
2023/07/09 05:50:48;;;;;;;;;;;30.90;52.20;;;;;;5020665;28;20371;-84
2023/07/09 05:53:14;;;;;;;;;;;30.70;52.20;;;;;;5021108;28;19913;-85
2023/07/09 05:55:39;;;;;;;;;;;30.60;50.10;;;;;;5020161;28;19913;-85
2023/07/09 05:58:05;;;;;;;;;;;30.60;48.70;;;;;;5015807;28;19967;-85
2023/07/09 06:00:30;;;;;;;;;;;30.70;50.60;;;;;;5020970;28;19970;-85
2023/07/09 06:02:57;;;;;;;;;;;31.10;49.20;;;;;;5021047;28;20311;-84
2023/07/09 06:05:22;;;;;;;;;;;31.60;48.70;;;;;;5020994;28;20367;-84
2023/07/09 06:07:48;;;;;;;;;;;31.40;48.40;;;;;;5021629;28;19936;-83
2023/07/09 06:10:15;;;;;;;;;;;31.40;49.10;;;;;;5021347;28;20488;-83
2023/07/09 06:12:40;;;;;;;;;;;31.50;48.10;;;;;;5022231;28;19963;-83
2023/07/09 06:15:06;;;;;;;;;;;31.60;47.30;;;;;;5020823;28;19917;-84
2023/07/09 06:17:31;;;;;;;;;;;32.10;48.10;;;;;;5020557;28;20671;-84
2023/07/09 06:19:57;;;;;;;;;;;32.50;48.10;;;;;;5022333;28;19917;-85
2023/07/09 06:22:23;;;;;;;;;;;32.80;47.30;;;;;;5024582;28;19927;-84
2023/07/09 06:24:48;;;;;;;;;;;33.60;47.10;;;;;;5022869;28;20406;-84
2023/07/09 06:27:14;;;;;;;;;;;34.00;46.80;;;;;;5021349;28;20338;-85
2023/07/09 06:29:41;;;;;;;;;;;33.90;45.10;;;;;;5023809;28;19995;-84
2023/07/09 06:32:07;;;;;;;;;;;34.30;48.50;;;;;;5024922;28;19913;-82
2023/07/09 06:34:33;;;;;;;;;;;34.60;46.20;;;;;;5024082;28;19924;-81
2023/07/09 06:36:58;;;;;;;;;;;34.90;46.90;;;;;;5024380;28;20516;-82
2023/07/09 06:39:24;;;;;;;;;;;35.00;45.60;;;;;;5007145;28;19952;-80
2023/07/09 06:41:49;;;;;;;;;;;35.10;44.90;;;;;;5004987;28;20062;-80
2023/07/09 06:44:15;;;;;;;;;;;35.30;46.10;;;;;;5005799;28;19917;-80
2023/07/09 06:46:41;;;;;;;;;;;35.60;45.30;;;;;;5023202;28;19921;-79
2023/07/09 06:49:06;;;;;;;;;;;36.10;43.30;;;;;;5003935;28;19921;-81
2023/07/09 06:51:32;;;;;;;;;;;33.00;48.30;;;;;;5020932;28;20015;-80
2023/07/09 06:53:58;;;;;;;;;;;33.90;47.70;;;;;;5005370;28;19953;-79
2023/07/09 06:56:23;;;;;;;;;;;36.00;45.50;;;;;;5022610;28;19928;-80
2023/07/09 06:58:49;;;;;;;;;;;36.70;42.70;;;;;;5018994;28;20300;-81
2023/07/09 07:01:15;;;;;;;;;;;36.60;41.30;;;;;;5005413;28;20023;-81
2023/07/09 07:03:40;;;;;;;;;;;36.30;41.30;;;;;;5023218;28;20022;-81
2023/07/09 07:06:06;;;;;;;;;;;36.60;42.20;;;;;;5023406;28;19917;-82
2023/07/09 07:08:32;;;;;;;;;;;37.40;41.80;;;;;;5022968;28;19917;-82
2023/07/09 07:11:02;;;;;;;;;;;37.60;40.50;;;;;;5021835;28;19917;-81
2023/07/09 07:13:38;;;;;;;;;;;37.60;40.70;;;;;;5016936;28;19925;-83
2023/07/09 07:16:08;;;;;;;;;;;38.40;41.20;;;;;;5022589;28;19921;-81
2023/07/09 07:18:33;;;;;;;;;;;38.60;39.30;;;;;;5005416;28;19914;-81
2023/07/09 07:20:59;;;;;;;;;;;39.10;39.00;;;;;;5025489;28;19932;-83
2023/07/09 07:23:25;;;;;;;;;;;39.00;40.50;;;;;;5026172;28;20360;-84
2023/07/09 07:25:51;;;;;;;;;;;38.40;40.70;;;;;;5027343;28;20679;-82
2023/07/09 07:28:17;;;;;;;;;;;38.20;41.60;;;;;;5011178;28;20422;-86
2023/07/09 07:30:43;;;;;;;;;;;38.50;39.80;;;;;;5024417;28;19927;-82
2023/07/09 07:33:08;;;;;;;;;;;37.50;40.60;;;;;;5023462;28;19967;-81
2023/07/09 07:35:36;;;;;;;;;;;35.30;44.50;;;;;;5021364;28;20490;-81
2023/07/09 07:38:02;;;;;;;;;;;35.20;43.80;;;;;;5023091;28;19917;-82
2023/07/09 07:40:27;;;;;;;;;;;36.80;43.20;;;;;;5004791;28;19932;-82
2023/07/09 07:42:53;;;;;;;;;;;38.30;45.80;;;;;;5023036;28;19913;-81
2023/07/09 07:45:18;;;;;;;;;;;38.20;45.30;;;;;;5015352;28;19971;-80
2023/07/09 07:47:44;;;;;;;;;;;35.40;48.60;;;;;;5021934;28;19921;-81
2023/07/09 07:50:10;;;;;;;;;;;37.70;46.80;;;;;;5023533;28;19925;-84
2023/07/09 07:52:37;;;;;;;;;;;38.30;44.80;;;;;;5028096;28;20587;-80
2023/07/09 07:55:06;;;;;;;;;;;37.50;46.20;;;;;;5014929;28;20682;-81
2023/07/09 07:57:32;;;;;;;;;;;37.70;45.60;;;;;;5018281;28;19917;-83
2023/07/09 07:59:57;;;;;;;;;;;35.90;49.10;;;;;;5033782;28;19917;-84
2023/07/09 08:02:23;;;;;;;;;;;38.10;48.10;;;;;;5025784;28;19917;-83
2023/07/09 08:04:50;;;;;;;;;;;35.70;49.60;;;;;;5013840;28;20007;-83
2023/07/09 08:07:17;;;;;;;;;;;33.60;53.10;;;;;;5031447;28;19956;-83
2023/07/09 08:09:43;;;;;;;;;;;33.70;55.40;;;;;;5036415;28;20351;-83
2023/07/09 08:12:11;;;;;;;;;;;33.80;53.00;;;;;;5024266;28;19910;-82
2023/07/09 08:14:37;;;;;;;;;;;32.80;54.50;;;;;;5008603;28;19917;-82
2023/07/09 08:17:03;;;;;;;;;;;37.00;49.00;;;;;;5022592;28;19918;-82
2023/07/09 08:19:28;;;;;;;;;;;35.80;49.30;;;;;;5010126;28;19917;-83
2023/07/09 08:21:54;;;;;;;;;;;34.90;49.20;;;;;;5022904;28;19975;-82
2023/07/09 08:24:20;;;;;;;;;;;37.20;47.40;;;;;;5024726;28;19913;-82
2023/07/09 08:26:45;;;;;;;;;;;36.00;46.60;;;;;;5022319;28;19964;-82
2023/07/09 08:29:11;;;;;;;;;;;38.60;47.00;;;;;;5006624;28;19964;-82
2023/07/09 08:31:36;;;;;;;;;;;40.40;44.00;;;;;;5005055;28;19951;-82
2023/07/09 08:34:02;;;;;;;;;;;38.00;46.20;;;;;;5024462;28;19967;-83
2023/07/09 08:36:27;;;;;;;;;;;39.60;42.40;;;;;;5023099;28;20031;-82
2023/07/09 08:38:53;;;;;;;;;;;41.10;40.40;;;;;;5023877;28;19917;-84
2023/07/09 08:41:25;;;;;;;;;;;41.50;42.10;;;;;;5004632;28;19925;-83
2023/07/09 08:44:17;;;;;;;;;;;38.60;41.50;;;;;;5022986;28;20019;-81
2023/07/09 08:46:52;;;;;;;;;;;41.00;41.60;;;;;;5011913;28;19921;-80
2023/07/09 08:49:20;;;;;;;;;;;42.00;38.30;;;;;;5021953;28;19932;-81
2023/07/09 08:51:47;;;;;;;;;;;42.80;38.30;;;;;;5005275;28;20820;-82
2023/07/09 08:54:22;;;;;;;;;;;42.60;37.80;;;;;;5003176;28;19917;-84
2023/07/09 08:56:49;;;;;;;;;;;42.60;35.60;;;;;;5012440;28;19939;-82
2023/07/09 08:59:15;;;;;;;;;;;43.00;37.60;;;;;;5002950;28;19941;-82
2023/07/09 09:01:46;;;;;;;;;;;43.50;36.50;;;;;;5020862;28;19921;-83
2023/07/09 09:04:24;;;;;;;;;;;43.80;37.00;;;;;;5021546;28;19948;-82
2023/07/09 09:06:59;;;;;;;;;;;43.70;34.40;;;;;;5024243;28;20626;-82
2023/07/09 09:09:27;;;;;;;;;;;44.10;32.80;;;;;;5023091;28;20432;-84
2023/07/09 09:12:05;;;;;;;;;;;44.30;32.60;;;;;;5022468;28;19924;-84
2023/07/09 09:14:35;;;;;;;;;;;44.30;34.60;;;;;;5021918;28;19914;-84
2023/07/09 09:17:02;;;;;;;;;;;44.50;33.50;;;;;;5028777;28;19917;-83
2023/07/09 09:19:28;;;;;;;;;;;44.30;32.90;;;;;;5004112;28;19917;-84
2023/07/09 09:22:03;;;;;;;;;;;44.50;34.70;;;;;;5020092;28;20004;-84
2023/07/09 09:24:35;;;;;;;;;;;44.50;33.20;;;;;;5020197;28;20008;-83
2023/07/09 09:27:00;;;;;;;;;;;44.60;32.20;;;;;;5003325;28;19924;-83
2023/07/09 09:29:26;;;;;;;;;;;41.30;34.60;;;;;;5011698;28;19921;-83
2023/07/09 09:31:55;;;;;;;;;;;40.40;38.00;;;;;;5017214;28;20443;-83
2023/07/09 09:34:22;;;;;;;;;;;43.00;36.20;;;;;;5011323;28;19913;-81
2023/07/09 09:36:48;;;;;;;;;;;43.60;32.00;;;;;;5026168;28;19917;-81
2023/07/09 09:39:13;;;;;;;;;;;42.40;33.00;;;;;;5016574;28;19932;-80
2023/07/09 09:41:40;;;;;;;;;;;43.20;33.20;;;;;;5027912;28;20308;-80
2023/07/09 09:44:06;;;;;;;;;;;43.30;30.90;;;;;;4998266;28;19924;-80
2023/07/09 09:46:32;;;;;;;;;;;42.90;31.90;;;;;;5006527;28;19921;-81
2023/07/09 09:49:01;;;;;;;;;;;42.50;34.50;;;;;;5013723;28;19958;-82
2023/07/09 09:51:27;;;;;;;;;;;42.10;35.00;;;;;;5033203;28;19929;-82
2023/07/09 09:53:57;;;;;;;;;;;43.20;33.90;;;;;;5020229;28;19917;-82
2023/07/09 09:56:30;;;;;;;;;;;43.90;33.60;;;;;;5023206;28;20583;-82
2023/07/09 09:58:56;;;;;;;;;;;44.40;33.90;;;;;;5011344;28;20047;-82
2023/07/09 10:01:26;;;;;;;;;;;43.70;33.80;;;;;;4996397;28;20082;-82
2023/07/09 10:03:55;;;;;;;;;;;41.90;32.90;;;;;;5013347;28;20662;-82
2023/07/09 10:06:24;;;;;;;;;;;42.20;33.60;;;;;;5023787;28;19945;-83
2023/07/09 10:09:16;;;;;;;;;;;42.70;32.20;;;;;;5037481;28;19912;-86
2023/07/09 10:11:42;;;;;;;;;;;43.90;33.70;;;;;;4987826;28;20012;-85
2023/07/09 10:14:33;;;;;;;;;;;44.10;33.00;;;;;;5020194;28;20023;-87
2023/07/09 10:17:02;;;;;;;;;;;43.70;32.40;;;;;;4987398;28;19925;-85
2023/07/09 10:19:43;;;;;;;;;;;43.80;32.50;;;;;;5020594;28;19917;-82
2023/07/09 10:22:29;;;;;;;;;;;43.40;32.80;;;;;;5005349;28;19925;-85
2023/07/09 10:25:04;;;;;;;;;;;43.50;31.70;;;;;;4977512;28;20366;-88
2023/07/09 10:27:39;;;;;;;;;;;43.30;32.50;;;;;;5011493;28;19913;-86
2023/07/09 10:30:23;;;;;;;;;;;43.20;34.30;;;;;;5016656;28;19921;-86
2023/07/09 10:32:55;;;;;;;;;;;43.40;33.50;;;;;;5021788;28;20836;-87
2023/07/09 10:35:38;;;;;;;;;;;43.80;34.70;;;;;;5025191;28;19987;-84
2023/07/09 10:38:11;;;;;;;;;;;43.30;30.50;;;;;;5035497;28;19916;-86
2023/07/09 10:40:39;;;;;;;;;;;41.50;33.60;;;;;;5013532;28;19928;-85
2023/07/09 10:43:05;;;;;;;;;;;40.90;32.30;;;;;;5023941;28;20375;-81
2023/07/09 10:45:34;;;;;;;;;;;41.00;32.70;;;;;;5022264;28;19917;-81
2023/07/09 10:48:02;;;;;;;;;;;41.70;32.30;;;;;;5007435;28;20392;-86
2023/07/09 10:50:39;;;;;;;;;;;40.70;33.50;;;;;;5009885;28;20411;-80
2023/07/09 10:53:15;;;;;;;;;;;39.10;33.60;;;;;;5022002;28;19925;-80
2023/07/09 10:55:52;;;;;;;;;;;38.50;34.60;;;;;;5003201;28;19937;-80
2023/07/09 10:58:24;;;;;;;;;;;37.00;39.40;;;;;;5018459;28;19968;-81
2023/07/09 11:00:50;;;;;;;;;;;36.30;40.50;;;;;;5013420;28;20007;-81
2023/07/09 11:03:18;;;;;;;;;;;36.10;36.80;;;;;;4997609;28;19917;-81
2023/07/09 11:05:44;;;;;;;;;;;35.80;40.30;;;;;;5018767;28;19919;-83
2023/07/09 11:08:15;;;;;;;;;;;35.20;41.00;;;;;;5028075;28;20292;-81
2023/07/09 11:10:43;;;;;;;;;;;35.10;43.20;;;;;;5006579;28;19987;-82
2023/07/09 11:13:15;;;;;;;;;;;34.60;43.00;;;;;;5020613;28;20745;-81
2023/07/09 11:15:41;;;;;;;;;;;35.00;44.90;;;;;;5021857;28;20032;-80
2023/07/09 11:18:11;;;;;;;;;;;34.50;41.20;;;;;;5022298;28;20478;-80
2023/07/09 11:20:42;;;;;;;;;;;34.70;44.60;;;;;;5019206;28;19928;-80
2023/07/09 11:23:37;;;;;;;;;;;34.20;45.70;;;;;;5017422;28;19917;-80
2023/07/09 11:26:12;;;;;;;;;;;34.20;44.80;;;;;;5000237;28;19963;-79
2023/07/09 11:28:42;;;;;;;;;;;34.40;43.80;;;;;;5026628;28;19917;-80
2023/07/09 11:31:08;;;;;;;;;;;33.90;44.00;;;;;;5006355;28;19928;-79
2023/07/09 11:33:34;;;;;;;;;;;34.30;44.40;;;;;;5024013;28;19990;-80
2023/07/09 11:36:07;;;;;;;;;;;34.10;43.20;;;;;;5024130;28;20284;-79
2023/07/09 11:38:41;;;;;;;;;;;33.90;44.70;;;;;;5023799;28;19917;-80
2023/07/09 11:41:25;;;;;;;;;;;33.70;47.20;;;;;;5023623;28;20466;-79
2023/07/09 11:43:50;;;;;;;;;;;33.60;47.40;;;;;;5021313;28;19921;-80
2023/07/09 11:46:22;;;;;;;;;;;33.60;48.10;;;;;;5028760;28;20453;-79
2023/07/09 11:48:49;;;;;;;;;;;33.80;46.70;;;;;;5007232;28;19921;-80
2023/07/09 11:51:16;;;;;;;;;;;33.70;44.70;;;;;;5004890;28;19929;-80
2023/07/09 11:53:47;;;;;;;;;;;33.70;45.80;;;;;;5021634;28;19952;-80
2023/07/09 11:56:13;;;;;;;;;;;33.40;47.10;;;;;;5022872;28;20399;-79
2023/07/09 11:58:53;;;;;;;;;;;33.40;47.60;;;;;;5010472;28;19971;-80
2023/07/09 12:01:20;;;;;;;;;;;33.40;45.20;;;;;;5021018;28;19921;-80
2023/07/09 12:03:46;;;;;;;;;;;33.20;47.80;;;;;;5018134;28;19932;-79
2023/07/09 12:06:20;;;;;;;;;;;33.20;49.20;;;;;;5024210;28;19917;-80
2023/07/09 12:08:46;;;;;;;;;;;33.00;52.80;;;;;;5023010;28;19917;-79
2023/07/09 12:11:21;;;;;;;;;;;32.90;50.80;;;;;;5027392;28;20031;-79
2023/07/09 12:13:47;;;;;;;;;;;33.00;50.70;;;;;;5018293;28;19971;-82
2023/07/09 12:16:23;;;;;;;;;;;32.70;52.50;;;;;;5006657;28;19916;-79
2023/07/09 12:18:49;;;;;;;;;;;33.10;51.30;;;;;;5026376;28;19928;-79
2023/07/09 12:21:15;;;;;;;;;;;32.40;53.10;;;;;;5021737;28;19929;-80
2023/07/09 12:23:40;;;;;;;;;;;32.50;52.40;;;;;;5004092;28;19959;-80
2023/07/09 12:26:11;;;;;;;;;;;32.70;54.60;;;;;;5013122;28;19917;-80
2023/07/09 12:28:37;;;;;;;;;;;32.60;51.90;;;;;;5016043;28;19986;-80
2023/07/09 12:31:02;;;;;;;;;;;32.80;51.70;;;;;;5021231;28;20277;-79
2023/07/09 12:33:28;;;;;;;;;;;32.80;52.10;;;;;;5020934;28;19920;-80
2023/07/09 12:35:58;;;;;;;;;;;32.10;48.50;;;;;;5021065;28;20004;-79
2023/07/09 12:38:25;;;;;;;;;;;32.30;50.50;;;;;;5029920;28;20390;-80
2023/07/09 12:40:51;;;;;;;;;;;32.30;48.90;;;;;;5022408;28;20047;-80
2023/07/09 12:43:24;;;;;;;;;;;32.30;52.10;;;;;;5034696;28;19917;-80
2023/07/09 12:45:50;;;;;;;;;;;32.30;53.60;;;;;;5027225;28;19928;-80
2023/07/09 12:48:16;;;;;;;;;;;32.60;52.30;;;;;;5025823;28;19925;-80
2023/07/09 12:50:48;;;;;;;;;;;32.60;50.80;;;;;;5023849;28;19928;-80
2023/07/09 12:53:18;;;;;;;;;;;32.60;51.60;;;;;;5024833;28;19917;-80
2023/07/09 12:55:48;;;;;;;;;;;32.30;51.80;;;;;;5003565;28;20443;-80
2023/07/09 12:58:19;;;;;;;;;;;32.30;53.70;;;;;;5019611;28;20803;-79
2023/07/09 13:00:51;;;;;;;;;;;32.30;54.10;;;;;;5015148;28;19940;-80
2023/07/09 13:03:18;;;;;;;;;;;32.50;53.10;;;;;;5000547;28;19921;-80
2023/07/09 13:06:16;;;;;;;;;;;32.50;51.00;;;;;;5021937;28;19921;-80
2023/07/09 13:08:42;;;;;;;;;;;32.30;52.30;;;;;;4970289;28;19991;-80
2023/07/09 13:11:15;;;;;;;;;;;32.10;57.20;;;;;;5026190;28;19944;-79
2023/07/09 13:13:41;;;;;;;;;;;32.00;53.10;;;;;;5002677;28;20059;-79
2023/07/09 13:16:06;;;;;;;;;;;32.20;53.50;;;;;;5019486;28;20411;-80
2023/07/09 13:18:32;;;;;;;;;;;32.40;55.30;;;;;;5014836;28;19963;-80
2023/07/09 13:20:58;;;;;;;;;;;32.10;55.90;;;;;;5025272;28;19917;-80
2023/07/09 13:23:25;;;;;;;;;;;32.10;57.40;;;;;;5015578;28;19916;-80
2023/07/09 13:25:52;;;;;;;;;;;31.80;53.50;;;;;;4998670;28;19971;-80
2023/07/09 13:28:17;;;;;;;;;;;31.70;52.70;;;;;;5009573;28;19920;-80
2023/07/09 13:30:43;;;;;;;;;;;31.50;53.50;;;;;;5013145;28;19917;-80
2023/07/09 13:33:10;;;;;;;;;;;31.50;52.80;;;;;;5017224;28;19970;-80
2023/07/09 13:35:35;;;;;;;;;;;31.70;53.00;;;;;;5015710;28;19921;-80
2023/07/09 13:38:01;;;;;;;;;;;31.70;53.10;;;;;;5013897;28;20487;-80
2023/07/09 13:40:27;;;;;;;;;;;31.60;51.20;;;;;;5023523;28;19925;-81
2023/07/09 13:42:55;;;;;;;;;;;31.70;55.80;;;;;;5021603;28;19963;-80
2023/07/09 13:45:22;;;;;;;;;;;31.50;54.50;;;;;;5012235;28;19917;-81
2023/07/09 13:47:49;;;;;;;;;;;31.60;57.70;;;;;;5018116;28;19944;-80
2023/07/09 13:50:16;;;;;;;;;;;31.70;57.70;;;;;;5012281;28;20011;-80
2023/07/09 13:52:42;;;;;;;;;;;31.70;54.70;;;;;;5010812;28;19928;-80
2023/07/09 13:55:17;;;;;;;;;;;31.50;57.60;;;;;;5020290;28;19921;-81
2023/07/09 13:57:43;;;;;;;;;;;31.60;56.60;;;;;;5018744;28;19968;-81
2023/07/09 14:00:09;;;;;;;;;;;31.60;53.80;;;;;;5019118;28;19921;-80
2023/07/09 14:02:35;;;;;;;;;;;31.50;57.80;;;;;;5002605;28;20006;-81
2023/07/09 14:05:02;;;;;;;;;;;31.50;56.50;;;;;;5020000;28;19944;-80
2023/07/09 14:07:29;;;;;;;;;;;31.60;54.90;;;;;;5016138;28;19917;-80
2023/07/09 14:09:55;;;;;;;;;;;31.50;55.00;;;;;;5011162;28;20008;-81
2023/07/09 14:12:21;;;;;;;;;;;31.50;54.00;;;;;;5018121;28;19992;-81
2023/07/09 14:14:47;;;;;;;;;;;31.50;56.90;;;;;;5001331;28;19971;-80
2023/07/09 14:17:12;;;;;;;;;;;31.50;56.80;;;;;;5010698;28;20648;-80
2023/07/09 14:19:38;;;;;;;;;;;31.30;54.60;;;;;;4998391;28;19920;-80